createdAt,value
2023-05-12T00:00:31.394Z,0.00
2023-05-12T00:01:31.776Z,0.00
2023-05-12T00:02:32.160Z,0.00
2023-05-12T00:03:32.635Z,0.00
2023-05-12T00:04:32.918Z,0.00
2023-05-12T00:05:33.159Z,0.00
2023-05-12T00:06:33.551Z,0.00
2023-05-12T00:07:33.886Z,0.00
2023-05-12T00:08:34.255Z,0.00
2023-05-12T00:09:34.615Z,0.00
2023-05-12T00:10:34.967Z,0.00
2023-05-12T00:11:35.354Z,0.00
2023-05-12T00:12:35.671Z,0.00
2023-05-12T00:13:36.110Z,0.00
2023-05-12T00:14:36.404Z,0.00
2023-05-12T00:15:36.757Z,0.00
2023-05-12T00:16:37.171Z,0.00
2023-05-12T00:17:37.544Z,0.00
2023-05-12T00:18:37.877Z,0.00
2023-05-12T00:19:38.171Z,0.00
2023-05-12T00:20:38.490Z,0.00
2023-05-12T00:21:38.881Z,0.00
2023-05-12T00:22:39.202Z,0.00
2023-05-12T00:23:39.558Z,0.00
2023-05-12T00:24:39.945Z,0.00
2023-05-12T00:25:40.295Z,0.00
2023-05-12T00:26:40.662Z,0.00
2023-05-12T00:27:40.989Z,0.00
2023-05-12T00:28:41.357Z,0.00
2023-05-12T00:29:41.740Z,0.00
2023-05-12T00:30:42.102Z,0.00
2023-05-12T00:31:42.555Z,0.00
2023-05-12T00:32:42.867Z,0.00
2023-05-12T00:33:43.200Z,0.00
2023-05-12T00:34:43.552Z,0.00
2023-05-12T00:35:43.891Z,0.00
2023-05-12T00:36:44.265Z,0.00
2023-05-12T00:37:44.602Z,0.00
2023-05-12T00:38:44.977Z,0.00
2023-05-12T00:39:45.297Z,0.00
2023-05-12T00:40:45.656Z,0.00
2023-05-12T00:41:46.038Z,0.00
2023-05-12T00:42:46.397Z,0.00
2023-05-12T00:43:46.761Z,0.00
2023-05-12T00:44:47.132Z,0.00
2023-05-12T00:45:47.521Z,0.00
2023-05-12T00:46:47.860Z,0.00
2023-05-12T00:47:48.245Z,0.00
2023-05-12T00:48:48.543Z,0.00
2023-05-12T00:49:48.910Z,0.00
2023-05-12T00:50:49.272Z,0.00
2023-05-12T00:51:49.654Z,0.00
2023-05-12T00:52:50.014Z,0.00
2023-05-12T00:53:50.761Z,0.00
2023-05-12T00:54:50.706Z,0.00
2023-05-12T00:55:51.052Z,0.00
2023-05-12T00:56:51.430Z,0.00
2023-05-12T00:57:51.795Z,0.00
2023-05-12T00:58:52.157Z,0.00
2023-05-12T00:59:52.549Z,0.00
2023-05-12T01:00:52.885Z,0.00
2023-05-12T01:01:53.277Z,0.00
2023-05-12T01:02:53.742Z,0.00
2023-05-12T01:03:53.914Z,0.00
2023-05-12T01:04:54.303Z,0.00
2023-05-12T01:05:54.636Z,0.00
2023-05-12T01:06:55.021Z,0.00
2023-05-12T01:07:55.366Z,0.00
2023-05-12T01:08:55.702Z,0.00
2023-05-12T01:09:56.045Z,0.00
2023-05-12T01:10:56.387Z,0.00
2023-05-12T01:11:56.762Z,0.00
2023-05-12T01:12:57.087Z,0.00
2023-05-12T01:13:57.447Z,0.00
2023-05-12T01:14:57.804Z,0.00
2023-05-12T01:15:58.160Z,0.00
2023-05-12T01:16:58.585Z,0.00
2023-05-12T01:17:58.885Z,0.00
2023-05-12T01:18:59.254Z,0.00
2023-05-12T01:19:59.580Z,0.00
2023-05-12T01:20:59.940Z,0.00
2023-05-12T01:22:00.308Z,0.00
2023-05-12T01:23:00.675Z,0.00
2023-05-12T01:24:01.021Z,0.00
2023-05-12T01:25:01.386Z,0.00
2023-05-12T01:26:01.772Z,0.00
2023-05-12T01:27:02.164Z,0.00
2023-05-12T01:28:02.480Z,0.00
2023-05-12T01:29:02.857Z,0.00
2023-05-12T01:30:03.238Z,0.00
2023-05-12T01:31:03.617Z,0.00
2023-05-12T01:32:03.939Z,0.00
2023-05-12T01:33:04.300Z,0.00
2023-05-12T01:34:04.645Z,0.00
2023-05-12T01:35:05.000Z,0.00
2023-05-12T01:36:05.378Z,0.00
2023-05-12T01:37:05.705Z,0.00
2023-05-12T01:38:06.073Z,0.00
2023-05-12T01:39:06.436Z,0.00
2023-05-12T01:40:06.802Z,0.00
2023-05-12T01:41:07.209Z,0.00
2023-05-12T01:42:07.521Z,0.00
2023-05-12T01:43:07.881Z,0.00
2023-05-12T01:44:08.244Z,0.00
2023-05-12T01:45:08.609Z,0.00
2023-05-12T01:46:09.015Z,0.00
2023-05-12T01:47:09.314Z,0.00
2023-05-12T01:48:09.671Z,0.00
2023-05-12T01:49:10.056Z,0.00
2023-05-12T01:50:10.394Z,0.00
2023-05-12T01:51:10.766Z,0.00
2023-05-12T01:52:11.087Z,0.00
2023-05-12T01:53:11.452Z,0.00
2023-05-12T01:54:11.812Z,0.00
2023-05-12T01:55:12.181Z,0.00
2023-05-12T01:56:12.550Z,0.00
2023-05-12T01:57:12.908Z,0.00
2023-05-12T01:58:13.271Z,0.00
2023-05-12T01:59:13.652Z,0.00
2023-05-12T02:00:13.995Z,0.00
2023-05-12T02:01:14.420Z,0.00
2023-05-12T02:02:14.740Z,0.00
2023-05-12T02:03:15.170Z,0.00
2023-05-12T02:04:15.527Z,0.00
2023-05-12T02:05:15.848Z,0.00
2023-05-12T02:06:16.241Z,0.00
2023-05-12T02:07:16.552Z,0.00
2023-05-12T02:08:16.913Z,0.00
2023-05-12T02:09:17.267Z,0.00
2023-05-12T02:10:17.729Z,0.00
2023-05-12T02:11:17.996Z,0.00
2023-05-12T02:12:18.340Z,0.00
2023-05-12T02:13:18.665Z,0.00
2023-05-12T02:14:19.030Z,0.00
2023-05-12T02:15:19.385Z,0.00
2023-05-12T02:16:19.823Z,0.00
2023-05-12T02:17:20.107Z,0.00
2023-05-12T02:18:20.538Z,0.00
2023-05-12T02:19:20.856Z,0.00
2023-05-12T02:20:21.456Z,0.00
2023-05-12T02:21:21.641Z,0.00
2023-05-12T02:22:21.918Z,0.00
2023-05-12T02:23:22.272Z,0.00
2023-05-12T02:24:22.618Z,0.00
2023-05-12T02:25:22.980Z,0.00
2023-05-12T02:26:23.374Z,0.00
2023-05-12T02:27:23.699Z,0.00
2023-05-12T02:28:24.054Z,0.00
2023-05-12T02:29:24.420Z,0.00
2023-05-12T02:30:24.790Z,0.00
2023-05-12T02:31:25.218Z,0.00
2023-05-12T02:32:25.528Z,0.00
2023-05-12T02:33:25.867Z,0.00
2023-05-12T02:34:26.230Z,0.00
2023-05-12T02:35:26.601Z,0.00
2023-05-12T02:36:26.983Z,0.00
2023-05-12T02:37:27.338Z,0.00
2023-05-12T02:38:27.702Z,0.00
2023-05-12T02:39:28.069Z,0.00
2023-05-12T02:40:28.435Z,0.00
2023-05-12T02:41:28.818Z,0.00
2023-05-12T02:42:29.154Z,0.00
2023-05-12T02:43:29.539Z,0.00
2023-05-12T02:44:29.935Z,0.00
2023-05-12T02:45:30.332Z,0.00
2023-05-12T02:46:30.656Z,0.00
2023-05-12T02:47:31.005Z,0.00
2023-05-12T02:48:31.369Z,0.00
2023-05-12T02:49:31.459Z,1.00
2023-05-12T02:50:31.757Z,1.00
2023-05-12T02:51:31.953Z,1.00
2023-05-12T02:52:32.212Z,2.00
2023-05-12T02:53:32.498Z,2.00
2023-05-12T02:54:32.903Z,0.00
2023-05-12T02:55:33.156Z,2.00
2023-05-12T02:56:34.060Z,2.00
2023-05-12T02:57:33.741Z,1.00
2023-05-12T02:58:34.021Z,3.00
2023-05-12T02:59:34.175Z,2.00
2023-05-12T03:00:34.367Z,1.00
2023-05-12T03:01:34.712Z,4.00
2023-05-12T03:02:34.933Z,1.00
2023-05-12T03:03:35.204Z,5.00
2023-05-12T03:04:35.361Z,3.00
2023-05-12T03:05:35.546Z,3.00
2023-05-12T03:06:35.839Z,5.00
2023-05-12T03:07:36.120Z,9.00
2023-05-12T03:08:36.279Z,8.00
2023-05-12T03:09:36.593Z,12.00
2023-05-12T03:10:36.764Z,9.00
2023-05-12T03:11:37.048Z,8.00
2023-05-12T03:12:37.197Z,15.00
2023-05-12T03:13:37.484Z,14.00
2023-05-12T03:14:37.814Z,13.00
2023-05-12T03:15:37.950Z,14.00
2023-05-12T03:16:38.258Z,20.00
2023-05-12T03:17:38.481Z,19.00
2023-05-12T03:18:38.619Z,21.00
2023-05-12T03:19:38.757Z,26.00
2023-05-12T03:20:39.026Z,29.00
2023-05-12T03:21:39.368Z,33.00
2023-05-12T03:22:39.480Z,41.00
2023-05-12T03:23:39.650Z,47.00
2023-05-12T03:24:39.930Z,51.00
2023-05-12T03:25:40.252Z,56.00
2023-05-12T03:26:40.405Z,60.00
2023-05-12T03:27:40.552Z,67.00
2023-05-12T03:28:40.729Z,67.00
2023-05-12T03:29:41.032Z,77.00
2023-05-12T03:30:41.307Z,79.00
2023-05-12T03:31:41.521Z,88.00
2023-05-12T03:32:41.823Z,90.00
2023-05-12T03:33:42.073Z,101.00
2023-05-12T03:34:42.245Z,106.00
2023-05-12T03:35:42.418Z,112.00
2023-05-12T03:36:42.625Z,118.00
2023-05-12T03:37:42.778Z,127.00
2023-05-12T03:38:42.960Z,137.00
2023-05-12T03:39:43.239Z,144.00
2023-05-12T03:40:43.429Z,151.00
2023-05-12T03:41:43.764Z,164.00
2023-05-12T03:42:43.923Z,179.00
2023-05-12T03:43:44.081Z,195.00
2023-05-12T03:44:44.269Z,201.00
2023-05-12T03:45:44.457Z,222.00
2023-05-12T03:46:44.842Z,240.00
2023-05-12T03:47:45.068Z,253.00
2023-05-12T03:48:45.099Z,268.00
2023-05-12T03:49:45.386Z,280.00
2023-05-12T03:50:45.620Z,289.00
2023-05-12T03:51:45.872Z,303.00
2023-05-12T03:52:46.040Z,323.00
2023-05-12T03:53:46.322Z,330.00
2023-05-12T03:54:46.613Z,345.00
2023-05-12T03:55:46.832Z,359.00
2023-05-12T03:56:47.133Z,378.00
2023-05-12T03:57:47.396Z,395.00
2023-05-12T03:58:47.591Z,417.00
2023-05-12T03:59:47.881Z,427.00
2023-05-12T04:00:48.063Z,448.00
2023-05-12T04:01:48.395Z,457.00
2023-05-12T04:02:48.594Z,476.00
2023-05-12T04:03:48.920Z,482.00
2023-05-12T04:04:49.008Z,493.00
2023-05-12T04:05:49.322Z,503.00
2023-05-12T04:06:49.630Z,504.00
2023-05-12T04:07:49.781Z,509.00
2023-05-12T04:08:49.972Z,499.00
2023-05-12T04:09:50.274Z,497.00
2023-05-12T04:10:50.451Z,485.00
2023-05-12T04:11:50.770Z,492.00
2023-05-12T04:12:50.927Z,498.00
2023-05-12T04:13:51.223Z,512.00
2023-05-12T04:14:51.400Z,533.00
2023-05-12T04:15:51.585Z,566.00
2023-05-12T04:16:51.890Z,612.00
2023-05-12T04:17:51.974Z,648.00
2023-05-12T04:18:52.291Z,691.00
2023-05-12T04:19:52.554Z,732.00
2023-05-12T04:20:52.850Z,761.00
2023-05-12T04:21:53.071Z,787.00
2023-05-12T04:22:53.325Z,808.00
2023-05-12T04:23:53.513Z,822.00
2023-05-12T04:24:53.856Z,831.00
2023-05-12T04:25:54.011Z,844.00
2023-05-12T04:26:54.216Z,861.00
2023-05-12T04:27:54.353Z,873.00
2023-05-12T04:28:54.654Z,897.00
2023-05-12T04:29:54.828Z,916.00
2023-05-12T04:30:55.018Z,951.00
2023-05-12T04:31:55.268Z,982.00
2023-05-12T04:32:55.439Z,1012.00
2023-05-12T04:33:55.564Z,1040.00
2023-05-12T04:34:55.773Z,1077.00
2023-05-12T04:35:56.080Z,1109.00
2023-05-12T04:36:56.262Z,1135.00
2023-05-12T04:37:56.433Z,1168.00
2023-05-12T04:38:56.608Z,1204.00
2023-05-12T04:39:56.773Z,1251.00
2023-05-12T04:40:56.967Z,1331.00
2023-05-12T04:41:57.132Z,1417.00
2023-05-12T04:42:57.290Z,1515.00
2023-05-12T04:44:00.605Z,1599.00
2023-05-12T04:44:57.670Z,1673.00
2023-05-12T04:46:00.013Z,1744.00
2023-05-12T04:46:58.061Z,1822.00
2023-05-12T04:47:58.299Z,1895.00
2023-05-12T04:48:58.392Z,1956.00
2023-05-12T04:49:58.573Z,2004.00
2023-05-12T04:50:58.800Z,2058.00
2023-05-12T04:51:58.988Z,2107.00
2023-05-12T04:52:59.104Z,2141.00
2023-05-12T04:53:59.282Z,2198.00
2023-05-12T04:54:59.475Z,2254.00
2023-05-12T04:55:59.666Z,2329.00
2023-05-12T04:56:59.872Z,2391.00
2023-05-12T04:58:00.039Z,2452.00
2023-05-12T04:59:00.209Z,2503.00
2023-05-12T05:00:00.403Z,2553.00
2023-05-12T05:01:00.610Z,2564.00
2023-05-12T05:02:00.782Z,2556.00
2023-05-12T05:03:01.048Z,2534.00
2023-05-12T05:04:01.216Z,2518.00
2023-05-12T05:05:01.339Z,2537.00
2023-05-12T05:06:01.535Z,2551.00
2023-05-12T05:07:01.737Z,2574.00
2023-05-12T05:08:01.895Z,2622.00
2023-05-12T05:09:02.087Z,2723.00
2023-05-12T05:10:02.301Z,2844.00
2023-05-12T05:11:02.474Z,2964.00
2023-05-12T05:12:02.673Z,3075.00
2023-05-12T05:13:02.881Z,3163.00
2023-05-12T05:14:02.989Z,3212.00
2023-05-12T05:15:03.168Z,3245.00
2023-05-12T05:16:03.390Z,3259.00
2023-05-12T05:17:03.574Z,3306.00
2023-05-12T05:18:03.748Z,3330.00
2023-05-12T05:19:06.601Z,3332.00
2023-05-12T05:20:09.469Z,3319.00
2023-05-12T05:21:04.333Z,3296.00
2023-05-12T05:22:04.473Z,3289.00
2023-05-12T05:23:04.611Z,3304.00
2023-05-12T05:24:05.371Z,3330.00
2023-05-12T05:25:04.983Z,3378.00
2023-05-12T05:26:05.167Z,3410.00
2023-05-12T05:27:05.378Z,3467.00
2023-05-12T05:28:05.541Z,3500.00
2023-05-12T05:29:05.732Z,3556.00
2023-05-12T05:30:05.945Z,3606.00
2023-05-12T05:31:06.136Z,3660.00
2023-05-12T05:32:06.311Z,3719.00
2023-05-12T05:33:06.557Z,3793.00
2023-05-12T05:34:06.680Z,3858.00
2023-05-12T05:35:06.866Z,3895.00
2023-05-12T05:36:07.051Z,3945.00
2023-05-12T05:37:07.244Z,4020.00
2023-05-12T05:38:07.383Z,4095.00
2023-05-12T05:39:07.591Z,4171.00
2023-05-12T05:40:07.858Z,4239.00
2023-05-12T05:41:07.962Z,4258.00
2023-05-12T05:42:08.144Z,4284.00
2023-05-12T05:43:08.283Z,4326.00
2023-05-12T05:44:08.483Z,4330.00
2023-05-12T05:45:08.685Z,4368.00
2023-05-12T05:46:08.841Z,4414.00
2023-05-12T05:47:09.140Z,4531.00
2023-05-12T05:48:09.260Z,4604.00
2023-05-12T05:49:09.378Z,4605.00
2023-05-12T05:50:09.585Z,4691.00
2023-05-12T05:51:09.774Z,4793.00
2023-05-12T05:52:10.005Z,4831.00
2023-05-12T05:53:10.140Z,4910.00
2023-05-12T05:54:10.330Z,4945.00
2023-05-12T05:55:10.513Z,4994.00
2023-05-12T05:56:10.698Z,5043.00
2023-05-12T05:57:10.903Z,5123.00
2023-05-12T05:58:11.066Z,5190.00
2023-05-12T05:59:11.233Z,5276.00
2023-05-12T06:00:11.425Z,5318.00
2023-05-12T06:01:11.621Z,5268.00
2023-05-12T06:02:11.868Z,5261.00
2023-05-12T06:03:12.057Z,5228.00
2023-05-12T06:04:12.199Z,5262.00
2023-05-12T06:05:14.150Z,5345.00
2023-05-12T06:06:12.509Z,5455.00
2023-05-12T06:07:12.715Z,5514.00
2023-05-12T06:08:12.872Z,5543.00
2023-05-12T06:09:13.050Z,5546.00
2023-05-12T06:10:13.245Z,5533.00
2023-05-12T06:11:13.763Z,5559.00
2023-05-12T06:12:13.626Z,5581.00
2023-05-12T06:13:13.772Z,5596.00
2023-05-12T06:14:13.942Z,5648.00
2023-05-12T06:15:14.132Z,5699.00
2023-05-12T06:16:14.359Z,5777.00
2023-05-12T06:17:14.503Z,5887.00
2023-05-12T06:18:14.654Z,6092.00
2023-05-12T06:19:14.865Z,6235.00
2023-05-12T06:20:15.046Z,6391.00
2023-05-12T06:21:15.239Z,6522.00
2023-05-12T06:22:15.465Z,6533.00
2023-05-12T06:23:15.604Z,6514.00
2023-05-12T06:24:15.810Z,6478.00
2023-05-12T06:25:15.976Z,6494.00
2023-05-12T06:26:16.150Z,6614.00
2023-05-12T06:27:16.365Z,6801.00
2023-05-12T06:28:16.501Z,6926.00
2023-05-12T06:29:16.688Z,7098.00
2023-05-12T06:30:16.880Z,7268.00
2023-05-12T06:31:17.137Z,7394.00
2023-05-12T06:32:17.278Z,7433.00
2023-05-12T06:33:17.403Z,7394.00
2023-05-12T06:34:17.592Z,7446.00
2023-05-12T06:35:17.904Z,7442.00
2023-05-12T06:36:17.975Z,7373.00
2023-05-12T06:37:18.177Z,7339.00
2023-05-12T06:38:18.344Z,7345.00
2023-05-12T06:39:18.528Z,7341.00
2023-05-12T06:40:18.728Z,7291.00
2023-05-12T06:41:18.928Z,7278.00
2023-05-12T06:42:19.151Z,7355.00
2023-05-12T06:43:19.326Z,7405.00
2023-05-12T06:44:19.499Z,7409.00
2023-05-12T06:45:19.976Z,7388.00
2023-05-12T06:46:19.880Z,7431.00
2023-05-12T06:47:20.068Z,7506.00
2023-05-12T06:48:20.234Z,7571.00
2023-05-12T06:49:20.424Z,7607.00
2023-05-12T06:50:20.590Z,7601.00
2023-05-12T06:51:20.765Z,7664.00
2023-05-12T06:52:20.969Z,7763.00
2023-05-12T06:53:23.385Z,7899.00
2023-05-12T06:54:21.339Z,8087.00
2023-05-12T06:55:21.909Z,8294.00
2023-05-12T06:56:21.739Z,8496.00
2023-05-12T06:57:21.937Z,8616.00
2023-05-12T06:58:22.119Z,8667.00
2023-05-12T06:59:22.317Z,8640.00
2023-05-12T07:00:22.502Z,8728.00
2023-05-12T07:01:22.740Z,8769.00
2023-05-12T07:02:22.923Z,8723.00
2023-05-12T07:03:23.180Z,8690.00
2023-05-12T07:04:24.527Z,8781.00
2023-05-12T07:05:23.746Z,8904.00
2023-05-12T07:06:23.595Z,9038.00
2023-05-12T07:07:23.793Z,9075.00
2023-05-12T07:08:23.983Z,9063.00
2023-05-12T07:09:24.162Z,9095.00
2023-05-12T07:10:24.334Z,9141.00
2023-05-12T07:11:24.514Z,9161.00
2023-05-12T07:12:24.723Z,9163.00
2023-05-12T07:13:24.912Z,9174.00
2023-05-12T07:14:25.089Z,9091.00
2023-05-12T07:15:25.300Z,9002.00
2023-05-12T07:16:25.500Z,8914.00
2023-05-12T07:17:25.736Z,8911.00
2023-05-12T07:18:25.906Z,8894.00
2023-05-12T07:19:26.082Z,8885.00
2023-05-12T07:20:26.283Z,8841.00
2023-05-12T07:21:26.415Z,8776.00
2023-05-12T07:22:26.668Z,8712.00
2023-05-12T07:23:26.814Z,8689.00
2023-05-12T07:24:27.004Z,8679.00
2023-05-12T07:25:27.262Z,8671.00
2023-05-12T07:26:27.381Z,8691.00
2023-05-12T07:27:27.596Z,8781.00
2023-05-12T07:28:27.756Z,8859.00
2023-05-12T07:29:27.933Z,8939.00
2023-05-12T07:30:28.110Z,8981.00
2023-05-12T07:31:28.335Z,8965.00
2023-05-12T07:32:28.555Z,8968.00
2023-05-12T07:33:28.674Z,8994.00
2023-05-12T07:34:28.857Z,8983.00
2023-05-12T07:35:29.034Z,9023.00
2023-05-12T07:36:29.210Z,9113.00
2023-05-12T07:37:29.403Z,9288.00
2023-05-12T07:38:29.566Z,9454.00
2023-05-12T07:39:29.767Z,9546.00
2023-05-12T07:40:29.979Z,9533.00
2023-05-12T07:41:30.480Z,9539.00
2023-05-12T07:42:30.363Z,9534.00
2023-05-12T07:43:30.542Z,9591.00
2023-05-12T07:44:30.705Z,9800.00
2023-05-12T07:45:30.888Z,10082.00
2023-05-12T07:46:31.189Z,10313.00
2023-05-12T07:47:31.318Z,10523.00
2023-05-12T07:48:31.492Z,10766.00
2023-05-12T07:49:31.722Z,10953.00
2023-05-12T07:50:31.898Z,11071.00
2023-05-12T07:51:32.096Z,11173.00
2023-05-12T07:52:32.314Z,11212.00
2023-05-12T07:53:32.514Z,11059.00
2023-05-12T07:54:32.709Z,10907.00
2023-05-12T07:55:32.916Z,10849.00
2023-05-12T07:56:33.113Z,10900.00
2023-05-12T07:57:33.343Z,11152.00
2023-05-12T07:58:33.542Z,11490.00
2023-05-12T07:59:33.735Z,11858.00
2023-05-12T08:00:33.927Z,12300.00
2023-05-12T08:01:34.138Z,12494.00
2023-05-12T08:02:34.459Z,12607.00
2023-05-12T08:03:34.645Z,12717.00
2023-05-12T08:04:34.817Z,12853.00
2023-05-12T08:05:34.951Z,13010.00
2023-05-12T08:06:35.145Z,13177.00
2023-05-12T08:07:35.374Z,13351.00
2023-05-12T08:08:35.539Z,13475.00
2023-05-12T08:09:35.757Z,13579.00
2023-05-12T08:10:35.946Z,13584.00
2023-05-12T08:11:36.209Z,13585.00
2023-05-12T08:12:36.347Z,13649.00
2023-05-12T08:13:36.537Z,13644.00
2023-05-12T08:14:36.727Z,13535.00
2023-05-12T08:15:36.924Z,13375.00
2023-05-12T08:16:37.141Z,13347.00
2023-05-12T08:17:37.340Z,13299.00
2023-05-12T08:18:37.537Z,13282.00
2023-05-12T08:19:37.668Z,13257.00
2023-05-12T08:20:37.880Z,13312.00
2023-05-12T08:21:38.060Z,13321.00
2023-05-12T08:22:38.309Z,13330.00
2023-05-12T08:23:38.478Z,13197.00
2023-05-12T08:24:38.665Z,13086.00
2023-05-12T08:25:38.845Z,13100.00
2023-05-12T08:26:39.056Z,13128.00
2023-05-12T08:27:39.268Z,13059.00
2023-05-12T08:28:39.461Z,12888.00
2023-05-12T08:29:39.659Z,12731.00
2023-05-12T08:30:39.884Z,12723.00
2023-05-12T08:31:40.122Z,12862.00
2023-05-12T08:32:40.327Z,13100.00
2023-05-12T08:33:40.423Z,13409.00
2023-05-12T08:34:40.624Z,13611.00
2023-05-12T08:35:40.824Z,13818.00
2023-05-12T08:36:41.004Z,13961.00
2023-05-12T08:37:41.234Z,14004.00
2023-05-12T08:38:41.425Z,13917.00
2023-05-12T08:39:41.611Z,13916.00
2023-05-12T08:40:41.815Z,13944.00
2023-05-12T08:41:42.005Z,13929.00
2023-05-12T08:42:42.231Z,13911.00
2023-05-12T08:43:42.431Z,13941.00
2023-05-12T08:44:42.622Z,13914.00
2023-05-12T08:45:42.799Z,13904.00
2023-05-12T08:46:43.031Z,13782.00
2023-05-12T08:47:43.223Z,13723.00
2023-05-12T08:48:43.409Z,13589.00
2023-05-12T08:49:43.608Z,13584.00
2023-05-12T08:50:43.830Z,13519.00
2023-05-12T08:51:45.481Z,13395.00
2023-05-12T08:52:44.238Z,13448.00
2023-05-12T08:53:44.427Z,13679.00
2023-05-12T08:54:55.028Z,14220.00
2023-05-12T08:55:54.168Z,14878.00
2023-05-12T08:57:45.229Z,15679.00
2023-05-12T08:58:45.380Z,15883.00
2023-05-12T08:59:45.559Z,16097.00
2023-05-12T09:00:45.788Z,16297.00
2023-05-12T09:01:46.039Z,16350.00
2023-05-12T09:02:54.102Z,16391.00
2023-05-12T09:03:46.390Z,16274.00
2023-05-12T09:04:46.642Z,16105.00
2023-05-12T09:05:46.778Z,15967.00
2023-05-12T09:06:47.019Z,15789.00
2023-05-12T09:07:47.217Z,15408.00
2023-05-12T09:08:47.411Z,15022.00
2023-05-12T09:09:47.612Z,14863.00
2023-05-12T09:10:47.806Z,14879.00
2023-05-12T09:11:48.008Z,15173.00
2023-05-12T09:12:48.240Z,15978.00
2023-05-12T09:13:48.416Z,16772.00
2023-05-12T09:14:48.621Z,16476.00
2023-05-12T09:15:48.950Z,16496.00
2023-05-12T09:16:49.332Z,16838.00
2023-05-12T09:17:49.281Z,17066.00
2023-05-12T09:18:49.451Z,16527.00
2023-05-12T09:19:49.616Z,17519.00
2023-05-12T09:20:49.817Z,17323.00
2023-05-12T09:21:50.022Z,21672.00
2023-05-12T09:22:50.290Z,16857.00
2023-05-12T09:23:50.439Z,16881.00
2023-05-12T09:24:50.661Z,21442.00
2023-05-12T09:25:50.833Z,16802.00
2023-05-12T09:26:51.059Z,19938.00
2023-05-12T09:27:51.276Z,19659.00
2023-05-12T09:28:51.470Z,15709.00
2023-05-12T09:29:58.474Z,15862.00
2023-05-12T09:30:51.874Z,18051.00
2023-05-12T09:31:52.250Z,14497.00
2023-05-12T09:32:52.374Z,14216.00
2023-05-12T09:33:52.512Z,16158.00
2023-05-12T09:34:52.694Z,17602.00
2023-05-12T09:35:52.920Z,16591.00
2023-05-12T09:36:53.079Z,16917.00
2023-05-12T09:37:53.286Z,15654.00
2023-05-12T09:38:53.486Z,14441.00
2023-05-12T09:39:53.661Z,16541.00
2023-05-12T09:40:53.877Z,17117.00
2023-05-12T09:41:54.109Z,17098.00
2023-05-12T09:42:54.285Z,16145.00
2023-05-12T09:43:54.500Z,14888.00
2023-05-12T09:44:54.675Z,16232.00
2023-05-12T09:45:54.930Z,17300.00
2023-05-12T09:46:55.088Z,18687.00
2023-05-12T09:47:55.313Z,20077.00
2023-05-12T09:48:55.479Z,20821.00
2023-05-12T09:49:55.697Z,21168.00
2023-05-12T09:50:55.902Z,21278.00
2023-05-12T09:51:56.071Z,22176.00
2023-05-12T09:52:56.316Z,24357.00
2023-05-12T09:53:56.470Z,23216.00
2023-05-12T09:54:56.688Z,18729.00
2023-05-12T09:55:56.886Z,19196.00
2023-05-12T09:56:57.111Z,22979.00
2023-05-12T09:57:57.302Z,22279.00
2023-05-12T09:58:57.488Z,24057.00
2023-05-12T09:59:57.693Z,26231.00
2023-05-12T10:01:21.035Z,24304.00
2023-05-12T10:01:58.130Z,26444.00
2023-05-12T10:02:58.359Z,26281.00
2023-05-12T10:03:58.482Z,26709.00
2023-05-12T10:04:58.751Z,24577.00
2023-05-12T10:05:58.902Z,20819.00
2023-05-12T10:06:59.081Z,22128.00
2023-05-12T10:07:59.312Z,26177.00
2023-05-12T10:08:59.482Z,28550.00
2023-05-12T10:09:59.698Z,29393.00
2023-05-12T10:10:59.917Z,28098.00
2023-05-12T10:12:00.138Z,82472.00
2023-05-12T10:13:00.340Z,76480.00
2023-05-12T10:14:00.519Z,75987.00
2023-05-12T10:15:00.714Z,75491.00
2023-05-12T10:16:01.512Z,75259.00
2023-05-12T10:17:01.155Z,75126.00
2023-05-12T10:18:01.442Z,75201.00
2023-05-12T10:19:01.574Z,75354.00
2023-05-12T10:20:01.708Z,75396.00
2023-05-12T10:21:01.874Z,75720.00
2023-05-12T10:22:02.098Z,75747.00
2023-05-12T10:23:02.382Z,75659.00
2023-05-12T10:24:02.529Z,75491.00
2023-05-12T10:25:02.724Z,75587.00
2023-05-12T10:26:02.925Z,75944.00
2023-05-12T10:27:03.171Z,76162.00
2023-05-12T10:28:03.343Z,77618.00
2023-05-12T10:29:03.492Z,28158.00
2023-05-12T10:30:03.748Z,75460.00
2023-05-12T10:31:03.946Z,75339.00
2023-05-12T10:32:04.090Z,75480.00
2023-05-12T10:33:04.307Z,10311.00
2023-05-12T10:34:04.456Z,10129.00
2023-05-12T10:35:04.647Z,10942.00
2023-05-12T10:36:04.870Z,75425.00
2023-05-12T10:37:05.050Z,78721.00
2023-05-12T10:38:05.247Z,80393.00
2023-05-12T10:39:05.403Z,81767.00
2023-05-12T10:40:05.610Z,76614.00
2023-05-12T10:41:05.844Z,75520.00
2023-05-12T10:42:06.018Z,74889.00
2023-05-12T10:43:06.207Z,82902.00
2023-05-12T10:44:06.388Z,16777.00
2023-05-12T10:45:06.631Z,15092.00
2023-05-12T10:46:06.814Z,12804.00
2023-05-12T10:47:06.986Z,13908.00
2023-05-12T10:48:07.286Z,75525.00
2023-05-12T10:49:07.393Z,17314.00
2023-05-12T10:50:07.594Z,19275.00
2023-05-12T10:51:07.803Z,26567.00
2023-05-12T10:52:08.003Z,14507.00
2023-05-12T10:53:09.979Z,11267.00
2023-05-12T10:54:08.390Z,9886.00
2023-05-12T10:55:08.632Z,9546.00
2023-05-12T10:56:08.993Z,9829.00
2023-05-12T10:57:09.215Z,10577.00
2023-05-12T10:58:09.436Z,11584.00
2023-05-12T10:59:09.710Z,79212.00
2023-05-12T11:00:09.914Z,12088.00
2023-05-12T11:01:10.139Z,11343.00
2023-05-12T11:02:10.424Z,11571.00
2023-05-12T11:03:11.488Z,75722.00
2023-05-12T11:04:10.524Z,11936.00
2023-05-12T11:05:10.968Z,11494.00
2023-05-12T11:06:10.866Z,10993.00
2023-05-12T11:07:12.110Z,10395.00
2023-05-12T11:08:11.764Z,9762.00
2023-05-12T11:09:11.482Z,9452.00
2023-05-12T11:10:11.634Z,9217.00
2023-05-12T11:11:11.778Z,9273.00
2023-05-12T11:12:11.908Z,9328.00
2023-05-12T11:13:12.159Z,9727.00
2023-05-12T11:14:12.325Z,10333.00
2023-05-12T11:15:12.526Z,11154.00
2023-05-12T11:16:12.855Z,12945.00
2023-05-12T11:17:12.985Z,75433.00
2023-05-12T11:18:13.231Z,13385.00
2023-05-12T11:19:13.685Z,11125.00
2023-05-12T11:20:13.526Z,10190.00
2023-05-12T11:21:13.728Z,9742.00
2023-05-12T11:22:13.900Z,9343.00
2023-05-12T11:23:14.104Z,8949.00
2023-05-12T11:24:17.056Z,8759.00
2023-05-12T11:25:14.493Z,8646.00
2023-05-12T11:26:14.644Z,8815.00
2023-05-12T11:27:14.835Z,9314.00
2023-05-12T11:28:15.086Z,9608.00
2023-05-12T11:29:15.296Z,9405.00
2023-05-12T11:30:15.387Z,9065.00
2023-05-12T11:31:15.594Z,8781.00
2023-05-12T11:32:15.803Z,8569.00
2023-05-12T11:33:16.003Z,8430.00
2023-05-12T11:34:16.135Z,8253.00
2023-05-12T11:35:16.410Z,7978.00
2023-05-12T11:36:17.037Z,7601.00
2023-05-12T11:37:16.693Z,7482.00
2023-05-12T11:38:16.896Z,7594.00
2023-05-12T11:39:17.097Z,7964.00
2023-05-12T11:40:17.275Z,8451.00
2023-05-12T11:41:17.450Z,8885.00
2023-05-12T11:42:19.685Z,9584.00
2023-05-12T11:43:17.872Z,10207.00
2023-05-12T11:44:18.061Z,10889.00
2023-05-12T11:45:18.436Z,11683.00
2023-05-12T11:46:18.500Z,12579.00
2023-05-12T11:47:18.675Z,13265.00
2023-05-12T11:48:18.940Z,15595.00
2023-05-12T11:49:19.071Z,16044.00
2023-05-12T11:50:19.282Z,82723.00
2023-05-12T11:51:19.504Z,21813.00
2023-05-12T11:52:19.722Z,17987.00
2023-05-12T11:53:19.932Z,17594.00
2023-05-12T11:54:20.102Z,17451.00
2023-05-12T11:55:20.551Z,16716.00
2023-05-12T11:56:20.508Z,16762.00
2023-05-12T11:57:20.673Z,17842.00
2023-05-12T11:58:20.909Z,16808.00
2023-05-12T11:59:21.081Z,16830.00
2023-05-12T12:00:21.357Z,15884.00
2023-05-12T12:01:21.461Z,15732.00
2023-05-12T12:02:21.767Z,17046.00
2023-05-12T12:03:22.010Z,75519.00
2023-05-12T12:04:22.180Z,15144.00
2023-05-12T12:05:22.537Z,14211.00
2023-05-12T12:06:22.513Z,30706.00
2023-05-12T12:07:22.713Z,18085.00
2023-05-12T12:08:22.957Z,31906.00
2023-05-12T12:09:23.199Z,29173.00
2023-05-12T12:10:23.365Z,28047.00
2023-05-12T12:11:23.557Z,19722.00
2023-05-12T12:12:23.771Z,15391.00
2023-05-12T12:13:24.001Z,18384.00
2023-05-12T12:14:24.152Z,13955.00
2023-05-12T12:15:24.385Z,22173.00
2023-05-12T12:16:24.638Z,18012.00
2023-05-12T12:17:24.784Z,16364.00
2023-05-12T12:18:25.042Z,15355.00
2023-05-12T12:19:25.152Z,14562.00
2023-05-12T12:20:25.350Z,29019.00
2023-05-12T12:21:25.619Z,36638.00
2023-05-12T12:22:25.834Z,16929.00